Time;durP1;ratioP1;P1;durP2;ratioP2;P2;SDS_P1;SDS_P2;PMS_P1;PMS_P2;Temp;Humidity;BMP_temperature;BMP_pressure;BME280_temperature;BME280_humidity;BME280_pressure;Samples;Min_cycle;Max_cycle;Signal;HPM_P1;HPM_P2
2021/05/22 00:02:15;;;;;;;3.50;0.49;;;;;;;9.45;85.19;98391.28;2026686;79;20847;-75
2021/05/22 00:05:19;;;;;;;2.01;0.40;;;;;;;9.37;85.52;98404.38;2027112;79;20219;-74
2021/05/22 00:08:22;;;;;;;1.66;0.40;;;;;;;9.37;85.61;98406.09;2027461;79;20182;-75
2021/05/22 00:11:25;;;;;;;0.59;0.41;;;;;;;9.37;85.37;98411.28;2026730;79;20194;-74
2021/05/22 00:14:27;;;;;;;1.23;0.64;;;;;;;9.34;85.13;98409.59;2027332;79;21033;-74
2021/05/22 00:17:30;;;;;;;1.69;0.50;;;;;;;9.27;84.74;98418.31;2026374;79;20633;-74
2021/05/22 00:20:33;;;;;;;0.95;0.36;;;;;;;9.17;84.42;98410.72;2027270;79;20568;-74
2021/05/22 00:23:36;;;;;;;1.89;0.40;;;;;;;9.04;84.47;98405.72;2026878;79;20227;-73
2021/05/22 00:26:38;;;;;;;1.69;0.40;;;;;;;8.98;84.29;98412.72;2026306;79;20174;-74
2021/05/22 00:29:41;;;;;;;0.89;0.40;;;;;;;8.86;84.56;98426.69;2027176;79;20631;-73
2021/05/22 00:32:44;;;;;;;2.11;0.50;;;;;;;8.84;84.96;98414.63;2026638;79;20198;-74
2021/05/22 00:35:46;;;;;;;1.99;0.61;;;;;;;8.79;84.77;98419.84;2021792;80;20195;-74
2021/05/22 00:38:49;;;;;;;6.88;0.60;;;;;;;8.68;84.77;98427.78;2021649;80;20193;-73
2021/05/22 00:41:51;;;;;;;1.20;0.41;;;;;;;8.65;85.05;98429.53;2021906;80;20208;-74
2021/05/22 00:45:06;;;;;;;2.06;0.40;;;;;;;8.63;85.05;98428.72;2021927;80;20247;-73
2021/05/22 00:48:10;;;;;;;3.61;0.36;;;;;;;8.58;84.94;98439.09;2021478;80;20864;-74
2021/05/22 00:51:12;;;;;;;4.19;0.55;;;;;;;8.56;84.92;98435.66;2021242;80;20171;-74
2021/05/22 00:54:17;;;;;;;6.01;1.09;;;;;;;8.52;84.66;98433.16;2021317;80;20337;-74
2021/05/22 00:57:21;;;;;;;2.33;0.40;;;;;;;8.45;84.42;98441.00;2021318;80;20163;-74
2021/05/22 01:00:38;;;;;;;3.05;0.45;;;;;;;8.45;84.48;98440.13;2022052;80;20207;-74
2021/05/22 01:03:43;;;;;;;1.46;0.61;;;;;;;8.42;84.56;98440.13;2021300;80;20203;-74
2021/05/22 01:06:46;;;;;;;2.40;0.56;;;;;;;8.36;84.44;98438.50;2021438;80;20304;-74
2021/05/22 01:09:52;;;;;;;1.64;0.41;;;;;;;8.32;84.59;98443.69;2021560;80;20867;-74
2021/05/22 01:12:56;;;;;;;2.50;0.43;;;;;;;8.27;84.68;98438.56;2021885;80;20159;-73
2021/05/22 01:15:59;;;;;;;4.94;0.65;;;;;;;8.21;84.90;98442.94;2021518;80;20733;-73
2021/05/22 01:19:04;;;;;;;2.08;0.40;;;;;;;8.18;84.86;98442.09;2021838;80;20724;-74
2021/05/22 01:22:09;;;;;;;3.63;1.25;;;;;;;8.12;84.93;98441.31;2021774;80;20620;-74
2021/05/22 01:25:27;;;;;;;3.49;0.59;;;;;;;8.11;84.93;98447.34;2021623;80;20968;-74
2021/05/22 01:28:30;;;;;;;2.31;0.57;;;;;;;8.07;84.91;98451.66;2021735;80;20167;-73
2021/05/22 01:31:34;;;;;;;3.75;0.45;;;;;;;8.01;85.19;98454.31;2021263;80;20965;-74
2021/05/22 01:34:38;;;;;;;3.49;0.47;;;;;;;8.00;85.50;98454.34;2025082;79;20332;-74
2021/05/22 01:37:40;;;;;;;5.71;0.85;;;;;;;8.00;85.97;98454.34;2026476;79;20170;-74
2021/05/22 01:40:44;;;;;;;1.34;0.41;;;;;;;8.02;85.96;98462.94;2026541;79;20299;-74
2021/05/22 01:43:49;;;;;;;3.85;0.55;;;;;;;7.97;85.91;98454.38;2026723;79;20970;-74
2021/05/22 01:46:53;;;;;;;6.50;0.59;;;;;;;7.92;86.31;98456.16;2026687;80;20403;-73
2021/05/22 01:49:56;;;;;;;2.56;0.60;;;;;;;7.89;86.35;98454.44;2027114;80;20438;-74
2021/05/22 01:53:04;;;;;;;1.71;0.50;;;;;;;7.89;86.30;98455.28;2026066;79;20422;-73
2021/05/22 01:56:10;;;;;;;5.44;0.50;;;;;;;7.87;86.08;98458.75;2026236;80;20336;-75
2021/05/22 01:59:13;;;;;;;1.67;0.36;;;;;;;7.80;86.53;98454.53;2026859;80;20293;-74
2021/05/22 02:02:20;;;;;;;1.83;0.49;;;;;;;7.77;86.69;98447.66;2027603;79;20320;-74
2021/05/22 02:05:24;;;;;;;2.19;0.40;;;;;;;7.76;86.80;98450.25;2028749;79;20334;-74
2021/05/22 02:08:28;;;;;;;6.00;0.90;;;;;;;7.76;86.81;98450.25;2027246;80;20375;-74
2021/05/22 02:11:37;;;;;;;2.56;0.50;;;;;;;7.67;86.97;98446.00;2028073;79;20322;-74
2021/05/22 02:14:42;;;;;;;6.15;0.70;;;;;;;7.68;87.12;98449.44;2027535;79;20344;-74
2021/05/22 02:17:46;;;;;;;2.04;0.43;;;;;;;7.64;87.07;98451.19;2027920;79;20367;-74
2021/05/22 02:20:52;;;;;;;5.71;0.77;;;;;;;7.61;87.33;98453.81;2027461;79;20334;-74
2021/05/22 02:23:56;;;;;;;2.39;0.40;;;;;;;7.60;87.22;98453.81;2028697;79;20866;-74
2021/05/22 02:27:01;;;;;;;2.80;0.40;;;;;;;7.56;87.45;98458.16;2027581;80;20341;-74
2021/05/22 02:30:16;;;;;;;2.14;0.50;;;;;;;7.54;87.36;98454.72;2027716;80;20527;-74
2021/05/22 02:33:19;;;;;;;1.92;0.50;;;;;;;7.53;87.26;98459.03;2028028;79;20358;-74
2021/05/22 02:36:22;;;;;;;1.63;0.60;;;;;;;7.51;87.33;98452.16;2027661;80;20295;-74
2021/05/22 02:39:27;;;;;;;2.10;0.54;;;;;;;7.50;87.37;98448.72;2027814;80;20352;-74
2021/05/22 02:42:32;;;;;;;4.04;0.73;;;;;;;7.48;87.35;98454.75;2028541;79;20388;-74
2021/05/22 02:45:38;;;;;;;1.56;0.40;;;;;;;7.45;87.67;98454.78;2028917;79;20336;-74
2021/05/22 02:48:42;;;;;;;1.71;0.63;;;;;;;7.45;87.89;98459.97;2029427;79;20483;-74
2021/05/22 02:51:48;;;;;;;3.04;0.65;;;;;;;7.42;87.67;98453.09;2028405;79;20303;-74
2021/05/22 02:54:52;;;;;;;4.65;0.57;;;;;;;7.42;87.60;98453.09;2029454;79;20314;-75
2021/05/22 02:57:55;;;;;;;6.56;0.54;;;;;;;7.42;87.72;98462.56;2028415;79;20315;-74
2021/05/22 03:00:57;;;;;;;6.61;1.38;;;;;;;7.40;87.60;98457.41;2028794;79;20337;-74
2021/05/22 03:04:01;;;;;;;2.59;0.57;;;;;;;7.38;87.78;98464.31;2027641;79;20782;-74
2021/05/22 03:07:03;;;;;;;3.21;0.70;;;;;;;7.38;87.58;98472.06;2027062;79;20334;-74
2021/05/22 03:10:08;;;;;;;7.15;0.79;;;;;;;7.34;87.65;98472.06;2028301;79;20337;-75
2021/05/22 03:13:11;;;;;;;2.49;0.50;;;;;;;7.32;87.79;98463.47;2026864;79;20358;-75
2021/05/22 03:16:14;;;;;;;4.31;0.60;;;;;;;7.30;87.77;98467.78;2027268;79;20354;-74
2021/05/22 03:19:17;;;;;;;3.15;0.54;;;;;;;7.29;87.89;98477.28;2026607;79;20340;-75
2021/05/22 03:22:19;;;;;;;3.10;0.64;;;;;;;7.29;87.83;98472.09;2027217;79;20804;-74
2021/05/22 03:25:22;;;;;;;4.79;1.39;;;;;;;7.31;87.86;98477.25;2027404;79;20358;-75
2021/05/22 03:28:25;;;;;;;5.20;0.61;;;;;;;7.31;87.73;98478.13;2027735;79;20343;-74
2021/05/22 03:31:27;;;;;;;6.54;0.88;;;;;;;7.31;87.62;98477.25;2027976;79;20321;-74
2021/05/22 03:34:30;;;;;;;2.71;0.59;;;;;;;7.28;87.77;98471.25;2026647;79;20346;-75
2021/05/22 03:37:32;;;;;;;3.31;0.60;;;;;;;7.28;87.64;98472.97;2027205;79;20351;-74
2021/05/22 03:40:35;;;;;;;3.29;0.64;;;;;;;7.28;87.67;98472.97;2027279;79;20719;-74
2021/05/22 03:43:38;;;;;;;1.84;0.49;;;;;;;7.24;87.54;98464.41;2027417;79;20775;-74
2021/05/22 03:46:40;;;;;;;3.72;0.60;;;;;;;7.28;87.57;98471.25;2028272;79;20784;-74
2021/05/22 03:49:43;;;;;;;5.36;0.94;;;;;;;7.24;87.52;98476.44;2027106;79;20295;-74
2021/05/22 03:52:45;;;;;;;5.72;1.40;;;;;;;7.23;87.71;98487.66;2027020;79;20334;-74
2021/05/22 03:55:49;;;;;;;4.72;0.50;;;;;;;7.22;87.84;98488.50;2027378;79;20323;-74
2021/05/22 03:58:53;;;;;;;3.80;0.51;;;;;;;7.23;87.93;98491.09;2026909;79;21072;-74
2021/05/22 04:01:55;;;;;;;2.76;0.68;;;;;;;7.25;87.86;98484.19;2027367;79;20817;-74
2021/05/22 04:04:58;;;;;;;3.91;0.66;;;;;;;7.27;88.08;98491.91;2028076;79;20311;-73
2021/05/22 04:08:02;;;;;;;8.48;0.90;;;;;;;7.31;87.93;98479.84;2026772;79;20323;-74
2021/05/22 04:11:05;;;;;;;2.89;0.60;;;;;;;7.31;88.04;98495.34;2027349;79;20994;-74
2021/05/22 04:14:08;;;;;;;7.41;1.00;;;;;;;7.31;88.21;98495.34;2027218;79;20654;-74
2021/05/22 04:17:10;;;;;;;2.00;1.06;;;;;;;7.34;88.17;98495.31;2026375;79;20813;-75
2021/05/22 04:20:14;;;;;;;4.00;0.70;;;;;;;7.38;88.25;98497.03;2025133;79;20338;-74
2021/05/22 04:23:17;;;;;;;4.86;0.60;;;;;;;7.43;88.36;98501.28;2025988;79;20723;-73
2021/05/22 04:26:20;;;;;;;7.14;0.66;;;;;;;7.50;88.45;98496.94;2025323;79;20340;-75
2021/05/22 04:29:23;;;;;;;6.95;0.61;;;;;;;7.54;88.25;98496.94;2026618;79;20314;-73
2021/05/22 04:32:25;;;;;;;3.47;0.60;;;;;;;7.61;88.05;98505.47;2026981;79;20346;-74
2021/05/22 04:35:28;;;;;;;5.10;0.61;;;;;;;7.68;87.96;98509.72;2026963;79;20368;-73
2021/05/22 04:38:31;;;;;;;3.33;1.24;;;;;;;7.73;87.65;98507.13;2027705;79;20835;-73
2021/05/22 04:41:34;;;;;;;3.92;0.61;;;;;;;7.79;87.40;98507.94;2026542;79;21173;-73
2021/05/22 04:44:36;;;;;;;5.59;0.93;;;;;;;7.85;87.28;98507.88;2027493;79;20412;-73
2021/05/22 04:47:39;;;;;;;8.18;0.85;;;;;;;7.93;87.16;98501.81;2027741;79;20971;-73
2021/05/22 04:50:42;;;;;;;6.03;0.75;;;;;;;7.96;87.03;98506.94;2027360;79;20315;-73
2021/05/22 04:53:45;;;;;;;3.24;0.75;;;;;;;8.00;87.00;98504.31;2026830;79;20342;-73
2021/05/22 04:56:48;;;;;;;5.24;0.90;;;;;;;8.06;86.81;98498.22;2026962;79;21463;-73
2021/05/22 04:59:50;;;;;;;4.66;0.52;;;;;;;8.21;86.51;98494.66;2026550;79;20206;-72
2021/05/22 05:02:54;;;;;;;2.17;0.63;;;;;;;8.61;85.91;98487.34;2026789;79;21081;-73
2021/05/22 05:05:57;;;;;;;2.81;0.61;;;;;;;8.71;84.51;98491.56;2026828;79;20182;-74
2021/05/22 05:09:00;;;;;;;3.50;0.60;;;;;;;8.63;84.42;98493.41;2027335;79;20174;-72
2021/05/22 05:12:05;;;;;;;3.22;0.82;;;;;;;8.58;83.92;98498.59;2026287;79;20167;-71
2021/05/22 05:15:08;;;;;;;5.18;0.76;;;;;;;8.60;83.91;98504.63;2026947;79;20614;-73
2021/05/22 05:18:10;;;;;;;6.85;2.33;;;;;;;8.56;83.75;98496.91;2026769;79;20302;-73
2021/05/22 05:21:13;;;;;;;3.67;0.60;;;;;;;8.51;84.06;98504.72;2026685;79;20632;-74
2021/05/22 05:24:16;;;;;;;4.20;0.65;;;;;;;8.56;84.31;98500.34;2025030;79;20436;-73
2021/05/22 05:27:19;;;;;;;5.34;0.60;;;;;;;8.63;84.43;98514.09;2025756;79;20338;-73
2021/05/22 05:30:21;;;;;;;2.85;0.79;;;;;;;8.62;83.92;98505.47;2026562;79;20178;-73
2021/05/22 05:33:24;;;;;;;11.01;1.35;;;;;;;8.64;84.05;98514.09;2026486;79;20182;-73
2021/05/22 05:36:27;;;;;;;6.66;0.77;;;;;;;8.66;84.10;98495.94;2026434;79;20992;-72
2021/05/22 05:39:29;;;;;;;4.45;0.84;;;;;;;8.67;83.82;98515.78;2025935;79;20530;-72
2021/05/22 05:42:32;;;;;;;3.80;0.74;;;;;;;8.68;83.76;98507.13;2026707;79;20259;-73
2021/05/22 05:45:35;;;;;;;7.06;0.90;;;;;;;8.72;84.01;98514.84;2025370;80;20220;-73
2021/05/22 05:48:38;;;;;;;5.65;0.69;;;;;;;8.74;83.95;98520.00;2026873;80;20216;-73
2021/05/22 05:51:41;;;;;;;3.14;0.80;;;;;;;8.79;84.02;98510.44;2026862;80;20224;-73
2021/05/22 05:54:43;;;;;;;9.10;0.95;;;;;;;8.88;84.28;98510.34;2026791;79;20220;-74
2021/05/22 05:57:46;;;;;;;6.91;0.90;;;;;;;8.87;83.51;98515.53;2027578;80;20982;-74
2021/05/22 06:00:49;;;;;;;9.56;0.95;;;;;;;8.88;83.51;98523.28;2026243;78;22094;-73
2021/05/22 06:03:51;;;;;;;4.10;0.99;;;;;;;8.92;83.27;98527.56;2026591;79;20171;-73
2021/05/22 06:06:54;;;;;;;5.05;0.80;;;;;;;8.96;83.17;98518.88;2026625;80;20192;-74
2021/05/22 06:09:57;;;;;;;4.72;0.77;;;;;;;8.96;82.99;98518.00;2026926;80;20224;-74
2021/05/22 06:13:00;;;;;;;4.16;0.69;;;;;;;9.00;83.16;98523.16;2027038;79;20182;-74
2021/05/22 06:16:16;;;;;;;4.40;1.38;;;;;;;9.02;82.80;98517.97;2025826;77;21042;-75
2021/05/22 06:19:19;;;;;;;4.84;1.09;;;;;;;9.09;82.97;98522.19;2027597;79;20902;-78
2021/05/22 06:22:22;;;;;;;3.24;0.90;;;;;;;9.17;83.29;98522.09;2028709;79;20162;-76
2021/05/22 06:25:25;;;;;;;9.06;1.21;;;;;;;9.25;83.56;98522.84;2027215;79;20166;-75
2021/05/22 06:28:28;;;;;;;8.24;0.86;;;;;;;9.25;83.32;98525.44;2028418;79;21032;-74
2021/05/22 06:31:30;;;;;;;8.18;0.80;;;;;;;9.68;83.13;98523.94;2026356;77;22218;-76
2021/05/22 06:34:35;;;;;;;8.04;1.41;;;;;;;9.67;82.22;98516.19;2027523;79;20206;-74
2021/05/22 06:37:37;;;;;;;6.50;1.76;;;;;;;9.86;82.30;98520.22;2027733;79;20195;-75
2021/05/22 06:40:40;;;;;;;5.82;0.84;;;;;;;9.92;81.69;98519.28;2027773;79;20212;-74
2021/05/22 06:44:35;;;;;;;5.86;0.86;;;;;;;9.94;80.79;98525.28;2027927;79;20204;-77
2021/05/22 06:47:38;;;;;;;8.10;1.71;;;;;;;10.17;80.81;98517.13;2026994;79;20188;-76
2021/05/22 06:50:41;;;;;;;4.94;0.91;;;;;;;10.40;79.44;98529.72;2028253;79;20196;-77
2021/05/22 06:53:53;;;;;;;8.18;1.55;;;;;;;10.37;79.02;98525.47;2027089;79;20207;-77
2021/05/22 06:56:56;;;;;;;5.49;0.90;;;;;;;10.46;79.34;98529.66;2031402;79;20464;-78
2021/05/22 06:59:59;;;;;;;5.91;0.80;;;;;;;10.53;77.19;98518.25;2027877;79;20163;-77
2021/05/22 07:03:01;;;;;;;3.80;0.74;;;;;;;10.47;78.18;98533.94;2026386;77;26238;-80
2021/05/22 07:06:11;;;;;;;8.10;1.60;;;;;;;10.32;78.67;98532.47;2029126;79;20171;-79
2021/05/22 07:09:13;;;;;;;6.84;1.46;;;;;;;10.33;79.15;98531.59;2027872;79;20184;-80
2021/05/22 07:12:22;;;;;;;7.53;1.04;;;;;;;10.20;78.87;98533.50;2030911;79;20320;-82
2021/05/22 07:15:25;;;;;;;7.94;0.76;;;;;;;10.20;79.90;98538.69;2037588;77;23793;-81
2021/05/22 07:18:28;;;;;;;4.41;0.96;;;;;;;10.08;78.27;98544.09;2036681;79;20638;-78
2021/05/22 07:21:33;;;;;;;6.24;1.04;;;;;;;9.98;78.39;98539.91;2026911;79;20155;-77
2021/05/22 07:24:36;;;;;;;5.75;0.94;;;;;;;10.05;79.66;98556.22;2028037;79;20174;-77
2021/05/22 07:27:38;;;;;;;6.63;1.24;;;;;;;10.21;80.08;98557.72;2027152;79;20188;-76
2021/05/22 07:30:41;;;;;;;5.69;0.68;;;;;;;10.34;78.93;98550.63;2025675;79;23708;-76
2021/05/22 07:33:44;;;;;;;6.64;0.76;;;;;;;10.53;78.52;98542.47;2027580;79;20178;-77
2021/05/22 07:36:47;;;;;;;6.13;0.70;;;;;;;10.96;77.80;98549.47;2027622;79;20190;-76
2021/05/22 07:39:50;;;;;;;4.76;0.63;;;;;;;11.13;75.70;98543.91;2027711;79;20170;-75
2021/05/22 07:42:53;;;;;;;7.30;0.69;;;;;;;11.29;75.80;98549.66;2027344;79;20884;-76
2021/05/22 07:45:57;;;;;;;9.19;1.39;;;;;;;11.76;75.01;98564.25;2026650;77;20956;-78
2021/05/22 07:48:59;;;;;;;6.88;0.90;;;;;;;11.98;72.32;98564.63;2027065;79;20663;-77
2021/05/22 07:52:04;;;;;;;3.55;0.80;;;;;;;12.20;71.20;98554.56;2026564;79;20229;-77
2021/05/22 07:55:08;;;;;;;6.43;1.61;;;;;;;12.01;68.91;98564.56;2027201;79;20632;-76
2021/05/22 07:58:11;;;;;;;8.76;0.93;;;;;;;11.99;70.93;98561.16;2027650;79;20771;-77
2021/05/22 08:01:14;;;;;;;4.76;0.65;;;;;;;11.99;69.72;98549.00;2026476;78;23951;-77
2021/05/22 08:04:17;;;;;;;6.30;1.16;;;;;;;12.14;69.83;98552.13;2026987;79;20223;-78
2021/05/22 08:07:20;;;;;;;6.06;0.70;;;;;;;12.30;69.36;98553.47;2026737;79;20179;-77
2021/05/22 08:10:22;;;;;;;8.88;0.88;;;;;;;12.32;67.22;98560.34;2026637;79;20171;-78
2021/05/22 08:13:28;;;;;;;7.44;1.20;;;;;;;12.43;67.08;98554.03;2027569;79;20170;-76
2021/05/22 08:16:31;;;;;;;4.22;0.75;;;;;;;12.46;66.51;98553.94;2025902;77;22549;-78
2021/05/22 08:19:33;;;;;;;6.76;1.15;;;;;;;12.48;68.75;98557.34;2027250;79;20190;-78
2021/05/22 08:22:36;;;;;;;5.01;0.75;;;;;;;12.51;68.45;98552.91;2026879;79;20186;-77
2021/05/22 08:25:39;;;;;;;4.93;0.96;;;;;;;12.50;66.04;98566.84;2027326;79;20194;-77
2021/05/22 08:29:03;;;;;;;5.06;0.63;;;;;;;12.51;65.80;98565.09;2027395;79;20284;-77
2021/05/22 08:32:06;;;;;;;2.51;0.56;;;;;;;12.34;66.09;98557.69;2027006;77;21629;-79
2021/05/22 08:35:10;;;;;;;5.54;0.70;;;;;;;12.28;67.91;98566.53;2027261;79;20166;-78
2021/05/22 08:38:12;;;;;;;4.55;0.51;;;;;;;12.64;68.05;98579.50;2029419;79;20178;-78
2021/05/22 08:41:16;;;;;;;2.89;0.70;;;;;;;13.27;66.33;98570.84;2026728;79;20159;-79
2021/05/22 08:44:19;;;;;;;6.07;1.04;;;;;;;13.88;63.79;98569.91;2026529;79;20178;-79
2021/05/22 08:47:21;;;;;;;5.34;0.73;;;;;;;14.20;62.96;98575.88;2025969;77;22865;-78
2021/05/22 08:50:25;;;;;;;7.11;1.69;;;;;;;13.99;60.08;98571.31;2026951;79;20190;-78
2021/05/22 08:53:28;;;;;;;6.22;0.90;;;;;;;13.77;61.43;98582.44;2026733;79;20634;-77
2021/05/22 08:56:30;;;;;;;7.39;1.39;;;;;;;13.30;59.73;98569.03;2026527;79;20937;-78
2021/05/22 08:59:38;;;;;;;5.66;0.90;;;;;;;13.02;61.66;98581.09;2026885;79;20239;-77
2021/05/22 09:02:42;;;;;;;3.77;0.64;;;;;;;12.85;61.75;98593.72;2026547;77;20890;-77
2021/05/22 09:05:45;;;;;;;4.89;0.70;;;;;;;12.80;62.88;98585.19;2027075;79;20800;-76
2021/05/22 09:09:05;;;;;;;7.06;1.23;;;;;;;12.93;63.40;98592.63;2027695;79;20154;-82
2021/05/22 09:12:08;;;;;;;6.36;1.31;;;;;;;13.37;60.38;98574.06;2027553;79;20605;-76
2021/05/22 09:15:14;;;;;;;2.29;0.80;;;;;;;13.85;61.73;98571.78;2026572;79;20995;-79
2021/05/22 09:18:21;;;;;;;5.13;0.79;;;;;;;14.55;57.25;98580.00;2027643;77;20585;-81
2021/05/22 09:21:24;;;;;;;6.91;1.13;;;;;;;15.03;56.69;98561.75;2027499;79;20230;-77
2021/05/22 09:24:27;;;;;;;4.79;0.82;;;;;;;15.03;54.60;98587.88;2027782;79;20757;-77
2021/05/22 09:27:35;;;;;;;5.64;0.70;;;;;;;14.93;55.87;98593.50;2027235;79;20188;-77
2021/05/22 09:30:40;;;;;;;;;;;;;;;14.49;56.07;98606.28;2026646;77;20349;-77
2021/05/22 09:33:43;;;;;;;3.60;0.80;;;;;;;13.96;58.89;98621.00;2026944;79;20062;-75
2021/05/22 09:36:46;;;;;;;4.36;0.80;;;;;;;13.90;61.75;98601.19;2030314;79;20189;-77
2021/05/22 09:39:51;;;;;;;3.30;0.54;;;;;;;14.10;60.92;98611.00;2027679;79;20178;-77
2021/05/22 09:42:55;;;;;;;7.13;1.02;;;;;;;14.49;61.41;98614.13;2027554;80;20192;-78
2021/05/22 09:45:57;;;;;;;4.79;0.90;;;;;;;15.11;59.56;98600.69;2026915;77;21343;-78
2021/05/22 09:49:05;;;;;;;8.48;1.65;;;;;;;15.56;56.42;98606.00;2027807;79;20228;-79
2021/05/22 09:52:09;;;;;;;3.61;0.70;;;;;;;16.08;56.41;98611.91;2029288;79;20200;-79
2021/05/22 09:55:12;;;;;;;4.00;0.66;;;;;;;16.21;54.44;98594.81;2026772;79;20347;-79
2021/05/22 09:58:31;;;;;;;4.49;0.73;;;;;;;15.87;53.28;98599.66;2027872;80;20182;-78
2021/05/22 10:01:42;;;;;;;4.95;0.70;;;;;;;15.76;55.96;98589.59;2026716;77;21035;-79
2021/05/22 10:04:44;;;;;;;5.84;0.80;;;;;;;15.95;53.06;98581.88;2027965;79;20186;-79
2021/05/22 10:07:49;;;;;;;3.88;0.71;;;;;;;16.04;51.50;98604.25;2028095;79;20994;-80
2021/05/22 10:10:55;;;;;;;7.44;0.80;;;;;;;15.85;51.74;98604.09;2027135;80;20178;-78
2021/05/22 10:13:58;;;;;;;3.15;0.64;;;;;;;15.55;51.19;98588.59;2027557;80;20247;-80
2021/05/22 10:17:02;;;;;;;4.51;0.82;;;;;;;15.43;50.69;98597.75;2026828;77;20262;-77
2021/05/22 10:20:06;;;;;;;4.04;0.98;;;;;;;15.47;52.39;98600.28;2027688;80;20791;-78
2021/05/22 10:23:10;;;;;;;4.30;0.89;;;;;;;15.26;49.80;98608.00;2028287;79;20664;-78
2021/05/22 10:26:13;;;;;;;4.90;0.93;;;;;;;15.00;49.88;98619.38;2027277;80;20174;-81
2021/05/22 10:29:16;;;;;;;6.66;0.90;;;;;;;14.96;51.24;98612.53;2027980;80;20226;-77
2021/05/22 10:32:22;;;;;;;2.67;0.70;;;;;;;14.97;50.35;98618.63;2026702;77;20884;-78
2021/05/22 10:35:26;;;;;;;5.45;0.80;;;;;;;15.13;51.17;98624.19;2027132;80;20686;-79
2021/05/22 10:38:28;;;;;;;2.14;0.64;;;;;;;15.42;51.32;98621.34;2026853;80;20190;-77
2021/05/22 10:41:41;;;;;;;6.19;1.05;;;;;;;15.68;50.49;98623.06;2028073;80;20174;-77
2021/05/22 10:44:44;;;;;;;6.32;0.74;;;;;;;15.67;49.07;98634.44;2030630;79;20211;-79
2021/05/22 10:47:47;;;;;;;3.95;0.70;;;;;;;15.67;49.97;98619.59;2026075;77;23318;-78
2021/05/22 10:50:49;;;;;;;4.81;0.60;;;;;;;15.90;49.99;98626.56;2028049;79;20243;-77
2021/05/22 10:53:57;;;;;;;3.97;0.61;;;;;;;15.90;47.90;98623.09;2026858;79;20182;-77
2021/05/22 10:57:02;;;;;;;3.24;0.68;;;;;;;15.97;49.65;98614.94;2027161;79;20182;-78
2021/05/22 11:00:15;;;;;;;2.55;0.50;;;;;;;16.02;46.93;98627.88;2025071;80;20259;-77
2021/05/22 11:03:17;;;;;;;4.51;0.70;;;;;;;15.82;47.03;98628.66;2026510;78;22876;-77
2021/05/22 11:06:39;;;;;;;2.40;0.50;;;;;;;15.59;48.23;98607.69;2027777;79;20198;-76
2021/05/22 11:09:43;;;;;;;2.76;0.56;;;;;;;15.41;48.46;98623.13;2026870;79;21049;-77
2021/05/22 11:12:48;;;;;;;2.94;0.71;;;;;;;15.07;49.15;98636.53;2027262;79;20192;-77
2021/05/22 11:15:55;;;;;;;9.14;0.71;;;;;;;14.66;52.49;98681.50;2033649;79;23597;-84
2021/05/22 11:19:00;;;;;;;6.97;0.60;;;;;;;14.17;57.24;98685.63;2036308;79;20127;-85
2021/05/22 11:22:14;;;;;;;4.55;0.64;;;;;;;13.80;62.07;98667.59;2041795;79;20170;-81
2021/05/22 11:25:20;;;;;;;4.86;0.63;;;;;;;14.05;66.06;98660.75;2029035;79;20271;-79
2021/05/22 11:28:23;;;;;;;6.20;0.79;;;;;;;14.47;64.33;98661.19;2027905;79;20272;-77
2021/05/22 11:31:32;;;;;;;4.93;0.57;;;;;;;14.73;62.93;98656.91;2026313;78;22473;-78
2021/05/22 11:34:35;;;;;;;3.06;0.60;;;;;;;15.12;62.71;98659.94;2027646;79;20207;-77
2021/05/22 11:37:38;;;;;;;5.94;0.75;;;;;;;15.18;61.31;98651.88;2027034;79;20192;-78
2021/05/22 11:40:40;;;;;;;4.90;0.60;;;;;;;15.51;62.70;98655.06;2027763;79;20284;-77
2021/05/22 11:43:45;;;;;;;3.41;0.51;;;;;;;15.92;57.26;98666.63;2026945;79;20845;-78
2021/05/22 11:46:52;;;;;;;4.22;0.70;;;;;;;16.08;57.18;98671.31;2024853;77;21523;-78
2021/05/22 11:49:55;;;;;;;3.06;0.68;;;;;;;16.30;57.86;98638.97;2026130;79;20639;-79
2021/05/22 11:53:12;;;;;;;3.36;0.50;;;;;;;16.42;51.41;98644.66;2025011;79;20226;-78
2021/05/22 11:56:16;;;;;;;5.50;0.95;;;;;;;16.85;53.79;98641.13;2026209;79;20198;-77
2021/05/22 11:59:19;;;;;;;1.73;0.50;;;;;;;17.25;51.42;98642.09;2026898;79;20210;-77
2021/05/22 12:02:41;;;;;;;3.64;0.61;;;;;;;17.34;47.88;98628.56;2027819;77;20278;-79
2021/05/22 12:05:44;;;;;;;3.01;0.60;;;;;;;17.45;49.04;98619.28;2029297;79;20254;-79
2021/05/22 12:08:57;;;;;;;2.83;0.63;;;;;;;17.76;49.88;98634.53;2028873;79;20174;-79
2021/05/22 12:12:06;;;;;;;2.78;0.50;;;;;;;17.93;45.01;98620.63;2030013;79;20656;-80
2021/05/22 12:15:30;;;;;;;2.38;0.60;;;;;;;18.32;45.22;98611.81;2029184;79;20221;-80
2021/05/22 12:18:33;;;;;;;5.25;0.60;;;;;;;18.52;43.31;98614.31;2025275;80;20279;-80
2021/05/22 12:21:36;;;;;;;2.89;0.50;;;;;;;18.32;42.08;98625.78;2024408;80;20217;-78
2021/05/22 12:24:39;;;;;;;2.09;0.50;;;;;;;18.12;43.05;98615.34;2024055;80;20230;-78
2021/05/22 12:27:42;;;;;;;2.21;0.50;;;;;;;17.81;42.72;98615.97;2024139;80;20201;-78
2021/05/22 12:30:46;;;;;;;5.80;0.70;;;;;;;17.62;44.00;98617.69;2022595;78;22674;-78
2021/05/22 12:33:56;;;;;;;2.44;0.47;;;;;;;17.21;44.22;98628.22;2022195;80;20223;-78
2021/05/22 12:37:02;;;;;;;3.39;0.57;;;;;;;17.00;45.17;98626.53;2022951;80;20295;-78
2021/05/22 12:40:08;;;;;;;2.80;0.50;;;;;;;16.73;44.65;98628.56;2025776;80;20305;-78
2021/05/22 12:43:11;;;;;;;5.53;1.10;;;;;;;16.44;44.37;98648.06;2023530;80;20195;-78
2021/05/22 12:46:23;;;;;;;2.33;0.45;;;;;;;16.14;45.81;98671.06;2022138;77;23184;-78
2021/05/22 12:49:31;;;;;;;2.97;0.40;;;;;;;15.81;51.70;98699.38;2022900;80;20273;-77
2021/05/22 12:52:53;;;;;;;2.16;0.45;;;;;;;15.38;55.75;98708.72;2022754;80;20179;-77
2021/05/22 12:56:06;;;;;;;2.61;0.60;;;;;;;15.02;59.39;98708.22;2021946;80;20755;-77
2021/05/22 12:59:12;;;;;;;1.96;0.40;;;;;;;14.79;58.99;98690.66;2021895;80;20222;-78
2021/05/22 13:02:37;;;;;;;3.28;0.50;;;;;;;14.70;60.90;98701.41;2020732;77;21139;-78
2021/05/22 13:05:47;;;;;;;2.75;0.40;;;;;;;14.69;59.92;98697.09;2021909;80;20175;-77
2021/05/22 13:08:50;;;;;;;1.75;0.68;;;;;;;14.97;58.69;98691.81;2022429;80;20252;-78
2021/05/22 13:12:01;;;;;;;1.67;0.30;;;;;;;15.31;56.62;98678.47;2022114;80;20204;-78
2021/05/22 13:15:14;;;;;;;1.49;0.30;;;;;;;15.93;55.82;98670.09;2021591;80;20167;-78
2021/05/22 13:18:22;;;;;;;2.44;0.39;;;;;;;16.70;54.24;98663.63;2024166;80;20178;-78
2021/05/22 13:21:31;;;;;;;1.06;0.38;;;;;;;17.23;49.80;98665.75;2022274;80;20220;-78
2021/05/22 13:24:34;;;;;;;1.27;0.40;;;;;;;17.56;49.74;98658.16;2022057;80;21053;-77
2021/05/22 13:27:37;;;;;;;2.19;0.30;;;;;;;17.72;47.98;98650.50;2021884;80;20655;-78
2021/05/22 13:30:43;;;;;;;2.29;0.50;;;;;;;17.95;47.71;98644.19;2017448;77;39262;-77
2021/05/22 13:33:53;;;;;;;2.58;0.49;;;;;;;18.14;47.01;98646.84;2022855;80;20196;-73
2021/05/22 13:36:56;;;;;;;1.25;0.40;;;;;;;18.32;47.01;98651.22;2024625;80;20618;-75
2021/05/22 13:39:58;;;;;;;2.51;0.50;;;;;;;18.62;45.05;98639.19;2024292;80;20710;-81
2021/05/22 13:43:03;;;;;;;3.60;0.50;;;;;;;18.88;44.08;98637.09;2024798;80;20207;-79
2021/05/22 13:46:05;;;;;;;2.56;0.52;;;;;;;18.79;42.39;98654.19;2022984;78;21565;-77
2021/05/22 13:49:08;;;;;;;2.09;0.40;;;;;;;18.27;41.75;98659.31;2023788;80;20197;-78
2021/05/22 13:52:11;;;;;;;4.61;0.50;;;;;;;17.63;43.88;98651.75;2024364;80;20239;-79
2021/05/22 13:55:15;;;;;;;1.70;0.43;;;;;;;17.21;44.79;98681.56;2024563;80;20446;-77
2021/05/22 13:58:18;;;;;;;3.06;0.40;;;;;;;16.81;46.00;98708.59;2020481;80;20208;-77
2021/05/22 14:01:22;;;;;;;4.16;0.34;;;;;;;15.88;45.96;98732.28;2015798;80;20859;-77
2021/05/22 14:04:25;;;;;;;0.68;0.20;;;;;;;15.24;50.09;98724.88;2020141;80;20183;-77
2021/05/22 14:07:28;;;;;;;2.70;0.55;;;;;;;14.71;51.15;98718.78;2020865;80;20298;-76
2021/05/22 14:10:30;;;;;;;2.67;0.40;;;;;;;14.64;55.57;98715.53;2020555;80;20196;-77
2021/05/22 14:13:33;;;;;;;1.42;0.40;;;;;;;14.94;56.29;98710.22;2020197;80;20180;-76
2021/05/22 14:16:37;;;;;;;0.71;0.30;;;;;;;15.13;56.14;98695.63;2021855;78;21777;-77
2021/05/22 14:19:40;;;;;;;0.75;0.24;;;;;;;15.21;55.63;98690.13;2021921;80;20315;-77
2021/05/22 14:22:44;;;;;;;1.44;0.30;;;;;;;15.22;55.08;98695.31;2022807;80;20185;-77
2021/05/22 14:25:47;;;;;;;1.35;0.30;;;;;;;15.23;53.52;98696.16;2022133;80;20282;-75
2021/05/22 14:28:50;;;;;;;2.36;0.30;;;;;;;15.27;54.56;98689.94;2023203;80;20252;-75
2021/05/22 14:31:52;;;;;;;1.74;0.31;;;;;;;15.47;53.01;98686.63;2021414;78;20195;-78
2021/05/22 14:34:55;;;;;;;2.34;0.50;;;;;;;15.97;50.49;98676.94;2023288;80;20179;-78